Time;durP1;ratioP1;P1;durP2;ratioP2;P2;SDS_P1;SDS_P2;PMS_P1;PMS_P2;Temp;Humidity;BMP_temperature;BMP_pressure;BME280_temperature;BME280_humidity;BME280_pressure;Samples;Min_cycle;Max_cycle;Signal;HPM_P1;HPM_P2
2022/10/17 00:08:28;;;;;;;19.48;4.40;;;;;;;12.71;99.99;101741.53;6163932;23;20077;-72
2022/10/17 00:11:01;;;;;;;16.05;4.28;;;;;;;12.94;98.71;101736.53;6137632;23;20437;-72
2022/10/17 00:13:27;;;;;;;16.23;4.90;;;;;;;12.99;98.55;101744.25;6137509;23;20005;-71
2022/10/17 00:15:53;;;;;;;25.02;4.57;;;;;;;12.89;98.84;101749.72;6137393;23;20021;-72
2022/10/17 00:18:18;;;;;;;14.70;4.93;;;;;;;13.07;98.84;101766.06;6137090;23;20012;-71
2022/10/17 00:20:44;;;;;;;23.55;4.38;;;;;;;13.02;99.11;101765.66;6137436;23;20009;-72
2022/10/17 00:23:09;;;;;;;14.80;4.13;;;;;;;13.12;98.58;101768.34;6137303;23;20063;-71
2022/10/17 00:25:35;;;;;;;16.15;3.85;;;;;;;13.21;98.05;101771.00;6161875;23;20425;-71
2022/10/17 00:28:01;;;;;;;13.85;4.38;;;;;;;13.27;97.34;101772.28;6137338;23;20009;-71
2022/10/17 00:30:27;;;;;;;17.08;4.90;;;;;;;13.30;96.62;101770.13;6137722;23;20060;-71
2022/10/17 00:32:52;;;;;;;21.90;4.10;;;;;;;13.35;97.50;101776.94;6163218;23;20001;-71
2022/10/17 00:35:18;;;;;;;16.35;4.85;;;;;;;13.37;97.50;101764.06;6137475;23;20001;-72
2022/10/17 00:37:43;;;;;;;11.93;3.90;;;;;;;13.39;97.79;101767.47;6137185;23;20004;-72
2022/10/17 00:40:09;;;;;;;12.23;4.03;;;;;;;13.46;97.18;101768.56;6161292;23;20016;-72
2022/10/17 00:42:34;;;;;;;15.38;3.90;;;;;;;13.49;96.92;101769.09;6137735;23;20013;-72
2022/10/17 00:45:11;;;;;;;16.38;3.92;;;;;;;13.33;97.24;101768.09;6137305;23;20005;-72
2022/10/17 00:47:38;;;;;;;15.32;5.00;;;;;;;13.35;97.74;101761.47;6137569;23;20088;-72
2022/10/17 00:50:05;;;;;;;16.58;4.15;;;;;;;13.42;97.63;101761.69;6137116;23;20040;-72
2022/10/17 00:52:31;;;;;;;13.00;5.13;;;;;;;13.43;97.56;101774.28;6137354;23;20068;-72
2022/10/17 00:55:11;;;;;;;13.23;4.22;;;;;;;13.33;98.65;101778.97;6131910;23;20014;-72
2022/10/17 00:57:38;;;;;;;19.40;4.55;;;;;;;13.44;97.81;101776.03;6132390;23;20286;-72
2022/10/17 01:00:06;;;;;;;21.98;4.78;;;;;;;13.22;98.56;101764.56;6131980;23;20012;-72
2022/10/17 01:02:32;;;;;;;11.70;3.95;;;;;;;13.22;98.67;101761.84;6132359;23;20002;-72
2022/10/17 01:04:58;;;;;;;13.07;3.95;;;;;;;13.29;98.13;101773.81;6133343;23;20133;-72
2022/10/17 01:07:26;;;;;;;15.32;3.65;;;;;;;13.39;97.76;101778.34;6132282;23;20108;-72
2022/10/17 01:09:52;;;;;;;11.15;4.20;;;;;;;13.45;97.61;101788.63;6132285;23;20340;-72
2022/10/17 01:12:36;;;;;;;17.48;3.42;;;;;;;13.35;98.76;101787.81;6132347;23;20084;-72
2022/10/17 01:15:11;;;;;;;15.55;3.75;;;;;;;13.40;97.76;101797.22;6132411;23;20002;-72
2022/10/17 01:18:03;;;;;;;17.38;3.88;;;;;;;13.47;97.45;101792.03;6132177;23;20016;-72
2022/10/17 01:20:53;;;;;;;11.70;3.70;;;;;;;13.52;97.40;101786.97;6131776;23;20056;-72
2022/10/17 01:24:01;;;;;;;12.40;3.60;;;;;;;13.49;97.31;101779.13;6131412;23;20006;-72
2022/10/17 01:26:43;;;;;;;15.27;3.45;;;;;;;13.32;97.97;101778.13;6132269;23;20013;-72
2022/10/17 01:29:42;;;;;;;11.82;2.95;;;;;;;13.47;97.11;101786.59;6132290;23;20036;-72
2022/10/17 01:32:29;;;;;;;13.20;3.35;;;;;;;13.48;97.23;101766.53;6132000;23;20012;-71
2022/10/17 01:35:27;;;;;;;16.00;3.03;;;;;;;13.41;97.54;101777.16;6131816;23;20088;-72
2022/10/17 01:38:16;;;;;;;17.90;3.95;;;;;;;13.56;97.08;101772.03;6123264;23;20006;-72
2022/10/17 01:41:19;;;;;;;11.32;3.47;;;;;;;13.41;97.96;101770.88;6118592;23;20041;-72
2022/10/17 01:44:20;;;;;;;20.52;4.00;;;;;;;13.38;98.43;101776.66;6115860;23;20010;-71
2022/10/17 01:46:49;;;;;;;15.45;4.07;;;;;;;13.46;98.22;101774.00;6121406;23;20024;-72
2022/10/17 01:49:19;;;;;;;17.67;4.07;;;;;;;13.49;98.01;101768.22;6133587;23;20091;-72
2022/10/17 01:51:54;;;;;;;15.38;3.30;;;;;;;13.62;96.86;101765.97;6134017;23;20002;-72
2022/10/17 01:54:29;;;;;;;12.75;3.88;;;;;;;13.59;97.31;101763.56;6133548;23;20029;-72
2022/10/17 01:57:00;;;;;;;9.98;3.47;;;;;;;13.49;97.97;101760.06;6133457;23;20006;-71
2022/10/17 01:59:36;;;;;;;14.00;4.78;;;;;;;13.48;97.81;101750.19;6133946;23;20004;-71
2022/10/17 02:02:04;;;;;;;11.00;2.50;;;;;;;13.41;97.69;101738.25;6133577;23;20001;-71
2022/10/17 02:04:31;;;;;;;11.13;3.42;;;;;;;13.37;98.29;101742.28;6133133;23;20041;-71
2022/10/17 02:06:56;;;;;;;19.92;4.15;;;;;;;13.42;98.62;101739.94;6132718;23;20045;-72
2022/10/17 02:09:25;;;;;;;14.10;3.58;;;;;;;13.37;98.39;101745.03;6133668;23;20009;-71
2022/10/17 02:12:03;;;;;;;14.95;3.58;;;;;;;13.42;97.97;101734.50;6133146;23;20002;-72
2022/10/17 02:14:38;;;;;;;11.68;3.15;;;;;;;13.36;98.17;101724.25;6133789;23;20006;-72
2022/10/17 02:17:36;;;;;;;12.38;3.58;;;;;;;13.39;98.41;101718.50;6133152;23;20012;-72
2022/10/17 02:20:24;;;;;;;14.75;3.70;;;;;;;13.35;98.77;101722.53;6108216;23;20084;-72
2022/10/17 02:23:16;;;;;;;17.38;3.83;;;;;;;13.19;99.24;101718.63;6133208;23;20001;-71
2022/10/17 02:25:48;;;;;;;16.50;3.45;;;;;;;13.39;98.94;101723.94;6132720;23;20005;-72
2022/10/17 02:28:28;;;;;;;16.35;4.13;;;;;;;13.53;97.90;101728.81;6133759;23;20037;-72
2022/10/17 02:31:01;;;;;;;9.68;2.85;;;;;;;13.56;97.53;101731.22;6133309;23;20016;-72
2022/10/17 02:33:37;;;;;;;10.30;3.85;;;;;;;13.56;97.84;101714.91;6133803;23;20008;-71
2022/10/17 02:36:07;;;;;;;10.45;3.40;;;;;;;13.65;97.35;101719.41;6133430;23;20053;-71
2022/10/17 02:38:34;;;;;;;14.55;4.03;;;;;;;13.56;97.88;101717.63;6134282;23;20002;-71
2022/10/17 02:41:00;;;;;;;15.30;3.20;;;;;;;13.53;97.68;101709.78;6132891;23;20006;-72
2022/10/17 02:43:26;;;;;;;18.30;3.95;;;;;;;13.38;99.26;101708.63;6134679;23;20386;-71
2022/10/17 02:45:53;;;;;;;19.80;3.60;;;;;;;13.48;98.87;101714.84;6132970;23;20008;-72
2022/10/17 02:48:34;;;;;;;8.82;3.20;;;;;;;13.57;98.81;101711.19;6133269;23;20013;-71
2022/10/17 02:51:11;;;;;;;15.57;3.55;;;;;;;13.64;97.51;101714.13;6133418;23;20033;-71
2022/10/17 02:53:46;;;;;;;13.07;3.40;;;;;;;13.68;97.45;101702.75;6133484;23;20005;-71
2022/10/17 02:56:23;;;;;;;12.48;3.28;;;;;;;13.74;97.05;101696.69;6134380;23;20010;-71
2022/10/17 02:58:58;;;;;;;10.00;3.38;;;;;;;13.64;97.10;101693.22;6123658;23;20006;-71
2022/10/17 03:01:24;;;;;;;8.13;3.45;;;;;;;13.49;97.62;101686.59;6132340;23;20002;-71
2022/10/17 03:03:49;;;;;;;9.27;3.13;;;;;;;13.57;97.41;101689.41;6132598;23;20043;-72
2022/10/17 03:06:15;;;;;;;10.85;3.22;;;;;;;13.54;98.02;101678.84;6132891;23;20008;-72
2022/10/17 03:08:41;;;;;;;13.48;3.50;;;;;;;13.46;97.77;101676.06;6132852;23;20353;-72
2022/10/17 03:11:06;;;;;;;8.63;3.40;;;;;;;13.48;98.10;101660.41;6132912;23;20002;-72
2022/10/17 03:13:31;;;;;;;15.90;3.55;;;;;;;13.52;98.07;101667.25;6132709;23;19997;-72
2022/10/17 03:15:57;;;;;;;11.50;3.35;;;;;;;13.63;97.87;101683.34;6133476;23;20013;-72
2022/10/17 03:18:22;;;;;;;16.27;3.28;;;;;;;13.60;98.03;101682.78;6133750;23;20004;-72
2022/10/17 03:20:48;;;;;;;11.02;3.30;;;;;;;13.61;97.82;101674.47;6133419;23;20009;-72
2022/10/17 03:23:13;;;;;;;8.48;2.63;;;;;;;13.76;96.52;101662.00;6135015;23;20096;-72
2022/10/17 03:25:39;;;;;;;15.95;3.33;;;;;;;13.82;96.30;101672.25;6133157;23;20017;-72
2022/10/17 03:28:05;;;;;;;8.13;3.10;;;;;;;13.72;96.93;101676.94;6133480;23;20005;-72
2022/10/17 03:30:30;;;;;;;9.82;3.22;;;;;;;13.63;97.08;101672.47;6156773;23;20002;-72
2022/10/17 03:32:56;;;;;;;11.57;2.97;;;;;;;13.55;96.87;101667.78;6132810;23;20085;-72
2022/10/17 03:35:22;;;;;;;7.65;2.95;;;;;;;13.42;98.12;101658.31;6133268;23;20102;-71
2022/10/17 03:37:47;;;;;;;13.73;2.55;;;;;;;13.59;97.37;101665.63;6133151;23;20025;-72
2022/10/17 03:40:13;;;;;;;9.90;2.40;;;;;;;13.42;97.52;101669.22;6132314;23;19998;-72
2022/10/17 03:42:38;;;;;;;6.22;2.70;;;;;;;13.33;98.00;101665.56;6132572;23;20002;-72
2022/10/17 03:45:04;;;;;;;5.75;2.47;;;;;;;13.41;98.10;101670.22;6132643;23;20016;-72
2022/10/17 03:47:29;;;;;;;6.40;2.40;;;;;;;13.61;97.10;101666.31;6132399;23;20010;-72
2022/10/17 03:49:54;;;;;;;6.90;2.63;;;;;;;13.46;97.05;101666.03;6132840;23;20002;-72
2022/10/17 03:52:20;;;;;;;8.20;2.45;;;;;;;13.46;97.03;101665.19;6133088;23;20062;-72
2022/10/17 03:54:45;;;;;;;11.60;2.00;;;;;;;13.41;97.48;101662.06;6132113;23;20006;-71
2022/10/17 03:57:11;;;;;;;9.23;2.05;;;;;;;13.48;96.55;101663.13;6132664;23;20012;-72
2022/10/17 03:59:36;;;;;;;2.78;1.80;;;;;;;13.44;97.57;101667.22;6132437;23;20065;-71
2022/10/17 04:02:01;;;;;;;9.07;2.30;;;;;;;13.23;98.10;101660.22;6132863;23;20002;-71
2022/10/17 04:04:27;;;;;;;4.70;2.15;;;;;;;13.27;97.73;101661.63;6132489;23;20009;-72
2022/10/17 04:06:52;;;;;;;10.55;2.42;;;;;;;13.21;98.30;101662.25;6132547;23;20014;-72
2022/10/17 04:09:18;;;;;;;10.02;3.00;;;;;;;13.03;99.32;101664.06;6132128;23;20013;-72
2022/10/17 04:11:43;;;;;;;9.82;2.70;;;;;;;13.28;98.37;101651.59;6132034;23;20074;-72
2022/10/17 04:14:09;;;;;;;5.82;2.72;;;;;;;13.29;97.76;101658.72;6132257;23;20009;-72
2022/10/17 04:16:34;;;;;;;7.18;2.50;;;;;;;13.19;98.42;101653.34;6132273;23;20006;-72
2022/10/17 04:19:00;;;;;;;5.47;2.50;;;;;;;13.17;98.61;101655.38;6134210;23;20012;-72
2022/10/17 04:21:27;;;;;;;9.57;2.88;;;;;;;13.08;99.01;101653.59;6132034;23;20016;-72
2022/10/17 04:23:54;;;;;;;7.57;2.67;;;;;;;13.18;98.66;101657.09;6131959;23;20002;-72
2022/10/17 04:26:19;;;;;;;8.68;3.78;;;;;;;13.12;98.46;101663.16;6132108;23;20006;-72
2022/10/17 04:28:44;;;;;;;11.35;2.65;;;;;;;13.13;98.58;101664.84;6132656;23;20029;-73
2022/10/17 04:31:13;;;;;;;6.93;2.42;;;;;;;13.08;98.42;101659.03;6132717;23;20048;-73
2022/10/17 04:33:39;;;;;;;5.35;2.72;;;;;;;12.97;98.65;101654.66;6132710;23;20052;-73
2022/10/17 04:36:11;;;;;;;7.10;2.67;;;;;;;12.87;99.03;101656.63;6132095;23;20040;-72
2022/10/17 04:38:37;;;;;;;6.32;2.78;;;;;;;13.00;99.15;101653.50;6132278;23;20093;-72
2022/10/17 04:41:06;;;;;;;4.97;2.42;;;;;;;12.90;99.21;101652.72;6132259;23;20085;-73
2022/10/17 04:43:36;;;;;;;6.78;2.97;;;;;;;12.74;99.82;101648.84;6131415;23;20024;-72
2022/10/17 04:46:04;;;;;;;7.65;3.50;;;;;;;12.91;99.34;101648.97;6132006;23;20053;-73
2022/10/17 04:48:29;;;;;;;8.40;2.80;;;;;;;12.94;98.70;101640.53;6132004;23;20108;-72
2022/10/17 04:50:59;;;;;;;9.90;2.33;;;;;;;13.02;98.19;101651.47;6132274;23;20033;-71
2022/10/17 04:53:25;;;;;;;6.32;2.70;;;;;;;12.95;98.64;101644.97;6141532;23;20084;-71
2022/10/17 04:55:52;;;;;;;5.10;2.67;;;;;;;12.70;99.74;101636.56;6137346;23;20017;-72
2022/10/17 04:58:18;;;;;;;10.80;3.40;;;;;;;12.84;99.16;101631.59;6137135;23;20002;-72
2022/10/17 05:00:44;;;;;;;16.10;9.90;;;;;;;12.93;98.91;101636.13;6136965;23;20001;-72
2022/10/17 05:03:09;;;;;;;9.13;3.65;;;;;;;12.98;98.90;101639.22;6137248;23;20088;-72
2022/10/17 05:05:40;;;;;;;16.55;3.58;;;;;;;12.93;98.33;101636.13;6137362;23;20471;-71
2022/10/17 05:08:07;;;;;;;6.18;3.03;;;;;;;12.95;98.13;101634.09;6137083;23;20001;-71
2022/10/17 05:10:50;;;;;;;6.00;3.20;;;;;;;13.01;98.36;101633.47;6136713;23;20001;-71
2022/10/17 05:13:16;;;;;;;9.10;3.42;;;;;;;12.77;98.99;101631.34;6136838;23;19998;-71
2022/10/17 05:15:41;;;;;;;9.38;3.22;;;;;;;12.90;98.27;101641.84;6136892;23;20108;-72
2022/10/17 05:18:07;;;;;;;8.48;3.10;;;;;;;12.81;98.86;101631.91;6162851;23;20103;-72
2022/10/17 05:20:32;;;;;;;10.30;3.15;;;;;;;12.63;99.68;101630.03;6136313;23;20392;-71
2022/10/17 05:22:58;;;;;;;14.13;3.55;;;;;;;12.53;100.00;101629.25;6137065;23;20025;-73
2022/10/17 05:25:24;;;;;;;5.97;3.13;;;;;;;12.45;100.00;101621.88;6136490;23;19997;-72
2022/10/17 05:27:49;;;;;;;13.75;3.33;;;;;;;12.52;100.00;101627.53;6137000;23;20029;-72
2022/10/17 05:30:15;;;;;;;6.32;2.92;;;;;;;12.35;100.00;101625.63;6136550;23;19997;-72
2022/10/17 05:32:40;;;;;;;6.93;3.58;;;;;;;12.36;100.00;101628.19;6137175;23;20036;-73
2022/10/17 05:35:06;;;;;;;11.85;2.97;;;;;;;12.41;100.00;101620.44;6161445;23;20056;-72
2022/10/17 05:37:31;;;;;;;10.90;3.47;;;;;;;12.39;100.00;101622.47;6136962;23;20060;-72
2022/10/17 05:39:56;;;;;;;9.30;3.15;;;;;;;12.33;100.00;101624.94;6136102;23;20006;-72
2022/10/17 05:42:22;;;;;;;9.48;3.45;;;;;;;12.22;100.00;101632.25;6137009;23;20002;-72
2022/10/17 05:44:48;;;;;;;13.07;4.00;;;;;;;12.22;100.00;101626.84;6162780;23;20001;-72
2022/10/17 05:47:13;;;;;;;17.50;4.35;;;;;;;12.22;100.00;101623.28;6161181;23;20002;-72
2022/10/17 05:49:38;;;;;;;8.82;3.67;;;;;;;12.35;100.00;101622.91;6163028;23;20008;-72
2022/10/17 05:52:05;;;;;;;9.98;4.00;;;;;;;12.37;100.00;101623.59;6136236;23;20033;-72
2022/10/17 05:54:30;;;;;;;8.60;3.78;;;;;;;12.42;100.00;101626.72;6131597;23;20002;-72
2022/10/17 05:56:56;;;;;;;14.07;4.40;;;;;;;12.32;100.00;101625.91;6131593;23;20012;-73
2022/10/17 05:59:23;;;;;;;18.52;3.75;;;;;;;12.34;100.00;101621.22;6131700;23;19998;-72
2022/10/17 06:01:48;;;;;;;13.30;3.95;;;;;;;12.16;100.00;101632.88;6133274;23;20002;-72
2022/10/17 06:04:14;;;;;;;11.13;3.88;;;;;;;12.21;100.00;101627.84;6131253;23;20008;-72
2022/10/17 06:06:39;;;;;;;13.05;4.32;;;;;;;12.33;100.00;101630.38;6131475;23;20002;-72
2022/10/17 06:09:06;;;;;;;10.48;3.30;;;;;;;12.38;100.00;101631.59;6131770;23;20045;-71
2022/10/17 06:11:32;;;;;;;12.27;4.72;;;;;;;12.34;100.00;101630.22;6132178;23;20002;-72
2022/10/17 06:13:58;;;;;;;9.68;3.97;;;;;;;12.30;100.00;101627.94;6131406;23;19994;-72
2022/10/17 06:16:23;;;;;;;15.38;3.70;;;;;;;12.21;100.00;101630.56;6131159;23;20021;-72
2022/10/17 06:18:49;;;;;;;7.45;3.97;;;;;;;12.37;100.00;101629.03;6131571;23;20006;-72
2022/10/17 06:21:22;;;;;;;12.00;4.18;;;;;;;12.41;100.00;101625.03;6131185;23;20005;-72
2022/10/17 06:23:48;;;;;;;16.38;4.05;;;;;;;12.31;100.00;101630.50;6131874;23;20009;-72
2022/10/17 06:26:13;;;;;;;9.57;3.90;;;;;;;12.30;100.00;101622.50;6132268;23;19998;-73
2022/10/17 06:28:39;;;;;;;10.27;3.97;;;;;;;12.28;100.00;101621.81;6130837;23;20105;-71
2022/10/17 06:31:10;;;;;;;11.60;3.97;;;;;;;12.32;100.00;101625.91;6131995;23;20006;-73
2022/10/17 06:33:36;;;;;;;12.97;3.80;;;;;;;12.23;100.00;101628.53;6132795;23;20005;-73
2022/10/17 06:36:02;;;;;;;9.23;3.85;;;;;;;12.42;100.00;101626.72;6132335;23;20234;-74
2022/10/17 06:38:27;;;;;;;13.20;4.55;;;;;;;12.32;100.00;101621.34;6134687;23;20006;-74
2022/10/17 06:40:53;;;;;;;9.00;4.18;;;;;;;12.37;100.00;101623.59;6134307;23;20279;-74
2022/10/17 06:43:19;;;;;;;16.83;3.80;;;;;;;12.46;100.00;101628.16;6134300;23;20008;-74
2022/10/17 06:45:46;;;;;;;18.02;4.53;;;;;;;12.48;100.00;101615.25;6134551;23;20002;-74
2022/10/17 06:48:12;;;;;;;6.63;3.53;;;;;;;12.57;100.00;101619.75;6134581;23;20144;-73
2022/10/17 06:50:37;;;;;;;8.40;4.25;;;;;;;12.64;100.00;101615.44;6134519;23;20283;-73
2022/10/17 06:53:03;;;;;;;20.10;3.83;;;;;;;12.71;100.00;101616.56;6134263;23;19998;-73
2022/10/17 06:55:30;;;;;;;19.48;4.32;;;;;;;12.72;100.00;101618.25;6126345;23;20013;-73
2022/10/17 06:57:56;;;;;;;6.75;4.05;;;;;;;12.83;100.00;101629.88;6129499;23;20005;-73
2022/10/17 07:00:22;;;;;;;10.10;3.80;;;;;;;12.95;100.00;101618.63;6128134;23;20029;-72
2022/10/17 07:02:48;;;;;;;9.07;3.72;;;;;;;13.04;100.00;101616.88;6103993;23;20056;-73
2022/10/17 07:05:14;;;;;;;8.25;3.63;;;;;;;13.02;100.00;101625.16;6104965;23;20006;-73
2022/10/17 07:07:39;;;;;;;12.05;3.45;;;;;;;13.27;100.00;101623.53;6128520;23;20002;-74
2022/10/17 07:10:07;;;;;;;10.05;3.60;;;;;;;13.37;100.00;101625.31;6128010;23;20061;-73
2022/10/17 07:12:34;;;;;;;13.15;3.75;;;;;;;13.62;100.00;101632.63;6104858;23;20037;-74
2022/10/17 07:14:59;;;;;;;9.05;3.50;;;;;;;13.75;100.00;101616.72;6128786;23;20002;-73
2022/10/17 07:17:25;;;;;;;14.50;3.30;;;;;;;13.90;100.00;101618.88;6104973;23;20072;-72
2022/10/17 07:19:50;;;;;;;13.60;3.28;;;;;;;14.06;99.98;101635.28;6104121;23;20005;-73
2022/10/17 07:22:16;;;;;;;6.30;3.40;;;;;;;14.10;100.00;101625.78;6103724;23;20016;-74
2022/10/17 07:24:41;;;;;;;11.52;3.30;;;;;;;14.28;99.85;101629.28;6129282;23;20029;-73
2022/10/17 07:27:06;;;;;;;3.83;2.53;;;;;;;14.46;99.08;101633.75;6103954;23;20002;-73
2022/10/17 07:29:32;;;;;;;8.95;3.35;;;;;;;14.59;98.77;101626.00;6104956;23;20044;-73
2022/10/17 07:31:57;;;;;;;8.63;3.10;;;;;;;14.67;98.45;101645.13;6130245;23;19998;-73
2022/10/17 07:34:26;;;;;;;5.35;2.70;;;;;;;14.82;98.09;101659.78;6104960;23;20005;-74
2022/10/17 07:36:52;;;;;;;12.52;3.05;;;;;;;15.00;97.56;101661.53;6106071;23;20431;-73
2022/10/17 07:39:17;;;;;;;5.40;3.00;;;;;;;15.09;97.12;101633.25;6105133;23;19998;-74
2022/10/17 07:41:43;;;;;;;7.13;2.97;;;;;;;14.97;97.31;101634.59;6105526;23;20038;-73
2022/10/17 07:44:08;;;;;;;9.65;3.17;;;;;;;15.00;97.54;101646.03;6106460;23;19998;-74
2022/10/17 07:46:34;;;;;;;6.10;2.90;;;;;;;15.26;97.33;101640.44;6129748;23;20057;-74
2022/10/17 07:48:59;;;;;;;8.35;3.10;;;;;;;15.13;97.05;101653.72;6106445;23;20030;-73
2022/10/17 07:51:26;;;;;;;6.88;2.67;;;;;;;15.16;97.52;101640.59;6106185;23;20100;-74
2022/10/17 07:53:52;;;;;;;10.98;3.60;;;;;;;15.25;96.80;101643.31;6116074;23;20006;-73
2022/10/17 07:56:20;;;;;;;11.50;3.33;;;;;;;15.30;97.31;101647.22;6132736;23;20323;-74
2022/10/17 07:58:47;;;;;;;6.72;2.97;;;;;;;15.47;96.63;101665.31;6130860;23;20097;-74
2022/10/17 08:01:13;;;;;;;12.70;3.15;;;;;;;15.39;97.00;101665.31;6129183;23;20010;-74
2022/10/17 08:03:40;;;;;;;4.57;2.83;;;;;;;15.53;96.47;101665.66;6128683;23;20005;-73
2022/10/17 08:06:06;;;;;;;8.45;3.60;;;;;;;15.69;95.95;101662.94;6128269;23;20005;-73
2022/10/17 08:08:31;;;;;;;8.27;3.03;;;;;;;15.81;95.15;101656.09;6127429;23;20012;-73
2022/10/17 08:11:02;;;;;;;8.43;3.50;;;;;;;15.93;94.26;101649.25;6128984;23;20048;-73
2022/10/17 08:13:27;;;;;;;9.50;3.60;;;;;;;15.88;94.29;101643.47;6130170;23;20029;-75
2022/10/17 08:15:53;;;;;;;8.85;3.00;;;;;;;16.26;94.35;101646.41;6129731;23;19998;-74
2022/10/17 08:18:18;;;;;;;7.03;3.22;;;;;;;16.09;94.51;101636.56;6130512;23;20084;-74
2022/10/17 08:20:44;;;;;;;7.45;3.17;;;;;;;16.41;93.21;101639.16;6129246;23;20013;-74
2022/10/17 08:23:09;;;;;;;6.03;3.10;;;;;;;16.33;93.83;101639.22;6129852;23;20009;-74
2022/10/17 08:25:37;;;;;;;5.15;2.83;;;;;;;16.44;93.28;101636.09;6129901;23;20065;-73
2022/10/17 08:28:03;;;;;;;8.52;3.10;;;;;;;16.42;93.58;101638.13;6129548;23;20041;-74
2022/10/17 08:30:29;;;;;;;7.30;2.97;;;;;;;16.64;92.48;101620.09;6130294;23;20346;-74
2022/10/17 08:32:55;;;;;;;5.85;3.30;;;;;;;16.58;93.23;101625.44;6127791;23;20009;-73
2022/10/17 08:35:21;;;;;;;7.93;3.60;;;;;;;16.87;91.67;101620.16;6128188;23;20006;-73
2022/10/17 08:37:47;;;;;;;8.15;3.15;;;;;;;16.83;91.95;101612.50;6128353;23;20014;-73
2022/10/17 08:40:23;;;;;;;9.77;3.03;;;;;;;16.71;92.82;101606.59;6127282;23;20006;-74
2022/10/17 08:43:10;;;;;;;10.00;2.95;;;;;;;16.55;93.14;101623.91;6126922;23;20002;-73
2022/10/17 08:45:55;;;;;;;7.22;3.58;;;;;;;16.60;93.46;101617.91;6128188;23;20016;-73
2022/10/17 08:48:24;;;;;;;9.25;3.33;;;;;;;16.71;93.01;101615.66;6130026;23;20010;-73
2022/10/17 08:51:21;;;;;;;11.85;3.15;;;;;;;16.70;93.48;101608.47;6128273;23;20035;-73
2022/10/17 08:54:08;;;;;;;12.45;2.75;;;;;;;16.86;92.70;101607.50;6121278;23;20009;-73
2022/10/17 08:56:41;;;;;;;9.43;2.95;;;;;;;16.93;92.83;101603.00;6132918;23;20016;-73
2022/10/17 08:59:12;;;;;;;9.52;3.15;;;;;;;17.07;92.27;101615.88;6131513;23;20036;-72
2022/10/17 09:01:43;;;;;;;;;;;;;;;16.95;92.22;101611.91;6133577;23;19998;-72
2022/10/17 09:04:14;;;;;;;6.85;3.22;;;;;;;16.88;92.91;101608.16;6159150;23;19908;-72
2022/10/17 09:07:00;;;;;;;8.75;2.95;;;;;;;16.93;93.08;101624.88;6133680;23;20005;-74
2022/10/17 09:09:31;;;;;;;8.95;2.97;;;;;;;17.26;92.22;101630.13;6132631;23;19998;-73
2022/10/17 09:12:21;;;;;;;10.98;3.40;;;;;;;17.81;90.35;101629.81;6133545;23;20005;-73
2022/10/17 09:15:05;;;;;;;7.22;3.28;;;;;;;18.34;88.02;101632.47;6133024;23;20002;-73
2022/10/17 09:17:39;;;;;;;6.68;2.88;;;;;;;18.23;87.62;101632.94;6131970;23;20036;-73
2022/10/17 09:20:29;;;;;;;7.30;3.20;;;;;;;18.36;87.60;101644.06;6132116;23;20021;-74
2022/10/17 09:23:01;;;;;;;7.97;2.92;;;;;;;18.36;87.89;101627.63;6131016;23;20092;-74
2022/10/17 09:25:27;;;;;;;7.43;2.88;;;;;;;18.88;86.75;101615.63;6131414;23;20085;-73
2022/10/17 09:28:34;;;;;;;7.00;3.00;;;;;;;18.87;86.33;101619.41;6132192;23;20025;-74
2022/10/17 09:31:17;;;;;;;6.30;2.92;;;;;;;19.08;86.01;101633.13;6111777;23;20005;-74
2022/10/17 09:33:45;;;;;;;7.57;3.20;;;;;;;18.82;86.35;101638.34;6132683;23;20048;-73
2022/10/17 09:36:16;;;;;;;11.15;3.60;;;;;;;18.89;86.74;101633.78;6132741;23;20371;-74
2022/10/17 09:38:46;;;;;;;9.50;3.35;;;;;;;19.02;86.56;101644.91;6131495;23;20052;-74
2022/10/17 09:41:21;;;;;;;5.75;3.28;;;;;;;19.28;86.02;101646.22;6131796;23;19997;-74
2022/10/17 09:43:47;;;;;;;9.18;3.83;;;;;;;19.34;85.66;101648.16;6131947;23;20001;-74
2022/10/17 09:46:25;;;;;;;7.57;3.40;;;;;;;19.33;85.45;101630.00;6132966;23;20393;-74
2022/10/17 09:48:59;;;;;;;8.55;3.35;;;;;;;18.87;87.12;101630.38;6132387;23;20001;-74
2022/10/17 09:51:25;;;;;;;9.25;2.90;;;;;;;19.15;86.77;101634.03;6132629;23;20040;-74
2022/10/17 09:53:57;;;;;;;9.07;3.22;;;;;;;19.16;87.11;101630.25;6125568;23;20005;-74
2022/10/17 09:56:22;;;;;;;6.50;3.55;;;;;;;19.40;86.34;101625.41;6128436;23;20377;-73
2022/10/17 09:58:53;;;;;;;11.50;3.80;;;;;;;19.59;85.88;101624.75;6128285;23;20006;-73
2022/10/17 10:01:30;;;;;;;9.93;3.30;;;;;;;19.68;85.44;101626.28;6126125;23;20005;-73
2022/10/17 10:04:13;;;;;;;7.53;3.00;;;;;;;19.63;85.71;101620.56;6126516;23;20002;-74
2022/10/17 10:06:40;;;;;;;15.73;3.17;;;;;;;19.91;84.93;101627.94;6127038;23;20002;-73
2022/10/17 10:09:21;;;;;;;13.85;3.22;;;;;;;19.87;85.32;101632.16;6126177;23;20040;-74
2022/10/17 10:11:50;;;;;;;10.65;3.83;;;;;;;19.99;84.95;101630.53;6128791;23;20002;-73
2022/10/17 10:14:32;;;;;;;10.77;2.95;;;;;;;19.96;85.33;101625.44;6128377;23;20009;-73
2022/10/17 10:17:00;;;;;;;8.20;3.00;;;;;;;19.98;85.15;101634.34;6128582;23;20025;-74
2022/10/17 10:19:34;;;;;;;7.05;3.15;;;;;;;19.83;85.73;101647.34;6129360;23;19997;-75
2022/10/17 10:22:05;;;;;;;9.82;3.25;;;;;;;20.05;85.37;101641.56;6129800;23;20053;-73
2022/10/17 10:24:31;;;;;;;5.47;3.03;;;;;;;20.24;84.62;101634.50;6129085;23;20450;-73
2022/10/17 10:27:00;;;;;;;16.40;3.25;;;;;;;20.51;83.87;101634.66;6127838;23;20009;-73
2022/10/17 10:29:35;;;;;;;6.82;2.70;;;;;;;20.31;84.35;101645.53;6128218;23;20089;-74
2022/10/17 10:32:25;;;;;;;6.75;3.28;;;;;;;20.26;84.97;101643.38;6129304;23;20013;-73
2022/10/17 10:35:20;;;;;;;6.55;2.90;;;;;;;20.22;85.10;101647.59;6129589;23;20102;-73
2022/10/17 10:37:54;;;;;;;18.95;3.85;;;;;;;20.55;84.22;101646.94;6128828;23;20012;-73
2022/10/17 10:40:34;;;;;;;8.02;3.03;;;;;;;20.73;83.48;101633.44;6130060;23;20002;-73
2022/10/17 10:43:00;;;;;;;15.43;3.30;;;;;;;20.83;82.67;101639.41;6129621;23;20037;-73
2022/10/17 10:45:28;;;;;;;6.13;3.05;;;;;;;20.96;82.72;101637.75;6127887;23;20005;-73
2022/10/17 10:47:56;;;;;;;13.65;3.20;;;;;;;21.00;82.58;101630.78;6128695;23;20183;-73
2022/10/17 10:50:33;;;;;;;9.90;3.58;;;;;;;20.82;82.57;101632.22;6129568;23;20088;-75
2022/10/17 10:53:10;;;;;;;16.50;3.30;;;;;;;20.82;83.13;101634.97;6129168;23;20025;-74
2022/10/17 10:55:44;;;;;;;8.75;3.63;;;;;;;20.77;83.26;101634.75;6128484;23;20010;-74
2022/10/17 10:58:31;;;;;;;9.40;3.95;;;;;;;20.47;84.17;101638.84;6129600;23;20001;-74
2022/10/17 11:01:03;;;;;;;13.15;3.30;;;;;;;20.53;83.92;101644.38;6128996;23;20061;-74
2022/10/17 11:03:38;;;;;;;6.93;3.20;;;;;;;20.79;83.14;101637.28;6104213;23;20337;-73
2022/10/17 11:06:15;;;;;;;9.02;2.97;;;;;;;20.61;84.29;101657.13;6103214;23;20024;-74
2022/10/17 11:08:48;;;;;;;12.88;3.65;;;;;;;20.58;83.50;101663.03;6104004;23;20022;-74
2022/10/17 11:11:24;;;;;;;14.57;4.18;;;;;;;20.62;83.50;101664.34;6127516;23;20059;-73
2022/10/17 11:13:53;;;;;;;17.33;4.18;;;;;;;20.66;83.88;101660.09;6127822;23;20025;-73
2022/10/17 11:16:38;;;;;;;9.75;3.80;;;;;;;20.84;83.29;101652.13;6127920;23;19998;-73
2022/10/17 11:19:15;;;;;;;5.93;3.38;;;;;;;20.66;83.94;101654.59;6093419;23;20010;-73
2022/10/17 11:21:51;;;;;;;11.18;3.70;;;;;;;20.72;83.81;101648.28;6103010;23;19997;-74
2022/10/17 11:24:26;;;;;;;8.73;4.43;;;;;;;20.69;83.66;101656.94;6127944;23;20006;-73
2022/10/17 11:26:57;;;;;;;14.13;3.83;;;;;;;20.77;83.32;101654.00;6104151;23;20028;-73
2022/10/17 11:29:28;;;;;;;13.40;4.25;;;;;;;20.96;83.09;101654.28;6104909;23;20030;-74
2022/10/17 11:31:55;;;;;;;16.38;3.95;;;;;;;21.07;82.76;101656.44;6104453;23;20006;-74
2022/10/17 11:34:26;;;;;;;15.63;3.65;;;;;;;21.11;82.04;101664.06;6103532;23;20001;-73
2022/10/17 11:37:10;;;;;;;21.15;4.90;;;;;;;20.97;82.61;101669.75;6103902;23;19998;-73
2022/10/17 11:39:51;;;;;;;24.52;5.30;;;;;;;21.31;81.53;101664.13;6129922;23;20085;-74
2022/10/17 11:42:24;;;;;;;20.13;4.63;;;;;;;21.26;82.29;101655.63;6104705;23;20006;-75